sensor_id;sensor_type;location;lat;lon;timestamp;P1;durP1;ratioP1;P2;durP2;ratioP2
13720;SDS011;6932;51.438;5.470;2022-08-01T00:00:27;6.57;;;3.83;;
13720;SDS011;6932;51.438;5.470;2022-08-01T00:02:53;7.30;;;4.40;;
13720;SDS011;6932;51.438;5.470;2022-08-01T00:05:19;5.60;;;3.50;;
13720;SDS011;6932;51.438;5.470;2022-08-01T00:07:45;6.57;;;3.80;;
13720;SDS011;6932;51.438;5.470;2022-08-01T00:10:11;7.57;;;4.53;;
13720;SDS011;6932;51.438;5.470;2022-08-01T00:12:40;6.77;;;4.10;;
13720;SDS011;6932;51.438;5.470;2022-08-01T00:15:07;7.73;;;4.30;;
13720;SDS011;6932;51.438;5.470;2022-08-01T00:17:35;7.90;;;4.33;;
13720;SDS011;6932;51.438;5.470;2022-08-01T00:20:02;8.57;;;4.30;;
13720;SDS011;6932;51.438;5.470;2022-08-01T00:22:30;8.17;;;4.60;;
13720;SDS011;6932;51.438;5.470;2022-08-01T00:24:58;9.33;;;4.77;;
13720;SDS011;6932;51.438;5.470;2022-08-01T00:27:25;6.47;;;4.40;;
13720;SDS011;6932;51.438;5.470;2022-08-01T00:29:51;8.40;;;4.33;;
13720;SDS011;6932;51.438;5.470;2022-08-01T00:32:17;7.10;;;4.37;;
13720;SDS011;6932;51.438;5.470;2022-08-01T00:34:43;7.60;;;4.70;;
13720;SDS011;6932;51.438;5.470;2022-08-01T00:37:09;9.53;;;5.00;;
13720;SDS011;6932;51.438;5.470;2022-08-01T00:39:35;7.83;;;4.90;;
13720;SDS011;6932;51.438;5.470;2022-08-01T00:42:05;8.20;;;4.93;;
13720;SDS011;6932;51.438;5.470;2022-08-01T00:44:33;11.70;;;5.30;;
13720;SDS011;6932;51.438;5.470;2022-08-01T00:46:59;8.63;;;5.20;;
13720;SDS011;6932;51.438;5.470;2022-08-01T00:49:26;8.77;;;4.90;;
13720;SDS011;6932;51.438;5.470;2022-08-01T00:51:52;9.83;;;5.33;;
13720;SDS011;6932;51.438;5.470;2022-08-01T00:54:19;10.70;;;5.60;;
13720;SDS011;6932;51.438;5.470;2022-08-01T00:56:44;9.40;;;5.13;;
13720;SDS011;6932;51.438;5.470;2022-08-01T00:59:11;8.67;;;5.20;;
13720;SDS011;6932;51.438;5.470;2022-08-01T01:01:38;10.40;;;5.67;;
13720;SDS011;6932;51.438;5.470;2022-08-01T01:04:04;10.77;;;6.07;;
13720;SDS011;6932;51.438;5.470;2022-08-01T01:12:59;8.67;;;5.30;;
13720;SDS011;6932;51.438;5.470;2022-08-01T01:18:16;9.53;;;5.50;;
13720;SDS011;6932;51.438;5.470;2022-08-01T01:21:35;9.20;;;6.00;;
13720;SDS011;6932;51.438;5.470;2022-08-01T01:26:52;10.07;;;6.20;;
13720;SDS011;6932;51.438;5.470;2022-08-01T01:29:48;11.60;;;5.90;;
13720;SDS011;6932;51.438;5.470;2022-08-01T01:32:29;11.10;;;6.27;;
13720;SDS011;6932;51.438;5.470;2022-08-01T01:35:05;9.00;;;5.90;;
13720;SDS011;6932;51.438;5.470;2022-08-01T01:37:35;11.60;;;7.00;;
13720;SDS011;6932;51.438;5.470;2022-08-01T01:40:05;11.20;;;6.60;;
13720;SDS011;6932;51.438;5.470;2022-08-01T01:42:35;11.83;;;6.87;;
13720;SDS011;6932;51.438;5.470;2022-08-01T01:45:03;10.27;;;6.90;;
13720;SDS011;6932;51.438;5.470;2022-08-01T01:47:31;11.40;;;7.30;;
13720;SDS011;6932;51.438;5.470;2022-08-01T01:49:59;13.53;;;7.63;;
13720;SDS011;6932;51.438;5.470;2022-08-01T01:52:27;11.67;;;7.23;;
13720;SDS011;6932;51.438;5.470;2022-08-01T01:54:56;10.30;;;7.00;;
13720;SDS011;6932;51.438;5.470;2022-08-01T01:57:30;10.77;;;7.27;;
13720;SDS011;6932;51.438;5.470;2022-08-01T01:59:57;10.87;;;7.13;;
13720;SDS011;6932;51.438;5.470;2022-08-01T02:02:26;12.00;;;7.60;;
13720;SDS011;6932;51.438;5.470;2022-08-01T02:04:53;14.73;;;7.70;;
13720;SDS011;6932;51.438;5.470;2022-08-01T02:07:21;10.73;;;7.20;;
13720;SDS011;6932;51.438;5.470;2022-08-01T02:09:50;11.10;;;7.47;;
13720;SDS011;6932;51.438;5.470;2022-08-01T02:12:19;12.10;;;7.20;;
13720;SDS011;6932;51.438;5.470;2022-08-01T02:14:48;11.00;;;7.60;;
13720;SDS011;6932;51.438;5.470;2022-08-01T02:17:18;11.20;;;7.00;;
13720;SDS011;6932;51.438;5.470;2022-08-01T02:19:48;12.00;;;7.80;;
13720;SDS011;6932;51.438;5.470;2022-08-01T02:22:24;12.13;;;7.57;;
13720;SDS011;6932;51.438;5.470;2022-08-01T02:25:12;10.93;;;7.57;;
13720;SDS011;6932;51.438;5.470;2022-08-01T02:30:42;11.47;;;7.30;;
13720;SDS011;6932;51.438;5.470;2022-08-01T02:33:20;11.47;;;7.43;;
13720;SDS011;6932;51.438;5.470;2022-08-01T02:35:54;13.67;;;7.13;;
13720;SDS011;6932;51.438;5.470;2022-08-01T02:38:25;11.77;;;7.40;;
13720;SDS011;6932;51.438;5.470;2022-08-01T02:40:57;10.70;;;6.50;;
13720;SDS011;6932;51.438;5.470;2022-08-01T02:43:28;11.30;;;7.07;;
13720;SDS011;6932;51.438;5.470;2022-08-01T02:45:58;14.20;;;7.60;;
13720;SDS011;6932;51.438;5.470;2022-08-01T02:48:27;10.50;;;6.93;;
13720;SDS011;6932;51.438;5.470;2022-08-01T02:51:00;11.57;;;7.00;;
13720;SDS011;6932;51.438;5.470;2022-08-01T02:53:29;11.33;;;6.67;;
13720;SDS011;6932;51.438;5.470;2022-08-01T02:56:02;11.67;;;7.20;;
13720;SDS011;6932;51.438;5.470;2022-08-01T02:58:31;10.07;;;6.90;;
13720;SDS011;6932;51.438;5.470;2022-08-01T03:00:59;10.93;;;6.90;;
13720;SDS011;6932;51.438;5.470;2022-08-01T03:03:28;9.47;;;6.40;;
13720;SDS011;6932;51.438;5.470;2022-08-01T03:05:56;11.67;;;7.33;;
13720;SDS011;6932;51.438;5.470;2022-08-01T03:08:24;12.40;;;7.40;;
13720;SDS011;6932;51.438;5.470;2022-08-01T03:10:53;11.27;;;7.17;;
13720;SDS011;6932;51.438;5.470;2022-08-01T03:13:21;11.70;;;7.07;;
13720;SDS011;6932;51.438;5.470;2022-08-01T03:15:48;12.07;;;7.33;;
13720;SDS011;6932;51.438;5.470;2022-08-01T03:18:16;13.37;;;8.17;;
13720;SDS011;6932;51.438;5.470;2022-08-01T03:20:43;11.93;;;7.67;;
13720;SDS011;6932;51.438;5.470;2022-08-01T03:23:11;12.17;;;6.93;;
13720;SDS011;6932;51.438;5.470;2022-08-01T03:25:38;11.87;;;7.77;;
13720;SDS011;6932;51.438;5.470;2022-08-01T03:28:08;12.43;;;7.50;;
13720;SDS011;6932;51.438;5.470;2022-08-01T03:30:38;11.97;;;7.27;;
13720;SDS011;6932;51.438;5.470;2022-08-01T03:33:07;12.80;;;7.37;;
13720;SDS011;6932;51.438;5.470;2022-08-01T03:35:34;12.23;;;7.70;;
13720;SDS011;6932;51.438;5.470;2022-08-01T03:38:07;11.37;;;7.40;;
13720;SDS011;6932;51.438;5.470;2022-08-01T03:40:43;11.83;;;7.47;;
13720;SDS011;6932;51.438;5.470;2022-08-01T03:43:48;11.00;;;7.40;;
13720;SDS011;6932;51.438;5.470;2022-08-01T03:46:31;10.93;;;6.80;;
13720;SDS011;6932;51.438;5.470;2022-08-01T03:49:06;12.20;;;7.63;;
13720;SDS011;6932;51.438;5.470;2022-08-01T03:51:46;10.93;;;7.20;;
13720;SDS011;6932;51.438;5.470;2022-08-01T03:54:15;11.67;;;7.73;;
13720;SDS011;6932;51.438;5.470;2022-08-01T03:56:47;11.33;;;7.43;;
13720;SDS011;6932;51.438;5.470;2022-08-01T03:59:16;9.87;;;6.67;;
13720;SDS011;6932;51.438;5.470;2022-08-01T04:01:44;11.23;;;7.00;;
13720;SDS011;6932;51.438;5.470;2022-08-01T04:04:12;12.07;;;7.50;;
13720;SDS011;6932;51.438;5.470;2022-08-01T04:06:38;11.90;;;7.07;;
13720;SDS011;6932;51.438;5.470;2022-08-01T04:09:08;10.60;;;6.83;;
13720;SDS011;6932;51.438;5.470;2022-08-01T04:11:36;11.17;;;7.07;;
13720;SDS011;6932;51.438;5.470;2022-08-01T04:14:02;11.50;;;7.53;;
13720;SDS011;6932;51.438;5.470;2022-08-01T04:16:28;11.03;;;6.73;;
13720;SDS011;6932;51.438;5.470;2022-08-01T04:18:54;10.73;;;6.37;;
13720;SDS011;6932;51.438;5.470;2022-08-01T04:21:22;12.53;;;7.70;;
13720;SDS011;6932;51.438;5.470;2022-08-01T04:23:54;10.93;;;6.67;;
13720;SDS011;6932;51.438;5.470;2022-08-01T04:26:25;10.83;;;6.50;;
13720;SDS011;6932;51.438;5.470;2022-08-01T04:28:54;10.00;;;6.67;;
13720;SDS011;6932;51.438;5.470;2022-08-01T04:31:21;10.57;;;6.80;;
13720;SDS011;6932;51.438;5.470;2022-08-01T04:33:51;10.67;;;6.87;;
13720;SDS011;6932;51.438;5.470;2022-08-01T04:36:21;10.33;;;6.00;;
13720;SDS011;6932;51.438;5.470;2022-08-01T04:38:50;10.73;;;6.93;;
13720;SDS011;6932;51.438;5.470;2022-08-01T04:41:25;10.10;;;6.57;;
13720;SDS011;6932;51.438;5.470;2022-08-01T04:43:52;12.80;;;7.33;;
13720;SDS011;6932;51.438;5.470;2022-08-01T04:46:20;11.73;;;7.17;;
13720;SDS011;6932;51.438;5.470;2022-08-01T04:48:47;9.93;;;6.90;;
13720;SDS011;6932;51.438;5.470;2022-08-01T04:51:15;12.13;;;7.30;;
13720;SDS011;6932;51.438;5.470;2022-08-01T04:53:44;10.77;;;6.87;;
13720;SDS011;6932;51.438;5.470;2022-08-01T04:56:13;11.40;;;7.43;;
13720;SDS011;6932;51.438;5.470;2022-08-01T04:58:40;12.20;;;7.47;;
13720;SDS011;6932;51.438;5.470;2022-08-01T05:01:07;12.03;;;7.17;;
13720;SDS011;6932;51.438;5.470;2022-08-01T05:03:33;13.43;;;8.00;;
13720;SDS011;6932;51.438;5.470;2022-08-01T05:05:59;10.93;;;6.90;;
13720;SDS011;6932;51.438;5.470;2022-08-01T05:08:25;11.93;;;7.53;;
13720;SDS011;6932;51.438;5.470;2022-08-01T05:10:50;10.03;;;6.53;;
13720;SDS011;6932;51.438;5.470;2022-08-01T05:13:17;9.70;;;6.67;;
13720;SDS011;6932;51.438;5.470;2022-08-01T05:15:44;11.50;;;7.30;;
13720;SDS011;6932;51.438;5.470;2022-08-01T05:18:10;11.33;;;7.27;;
13720;SDS011;6932;51.438;5.470;2022-08-01T05:20:36;11.07;;;7.10;;
13720;SDS011;6932;51.438;5.470;2022-08-01T05:23:03;12.20;;;6.93;;
13720;SDS011;6932;51.438;5.470;2022-08-01T05:25:30;11.40;;;7.17;;
13720;SDS011;6932;51.438;5.470;2022-08-01T05:27:55;11.73;;;7.10;;
13720;SDS011;6932;51.438;5.470;2022-08-01T05:30:21;10.93;;;7.10;;
13720;SDS011;6932;51.438;5.470;2022-08-01T05:32:47;9.40;;;6.17;;
13720;SDS011;6932;51.438;5.470;2022-08-01T05:35:12;10.57;;;6.27;;
13720;SDS011;6932;51.438;5.470;2022-08-01T05:37:38;11.60;;;6.80;;
13720;SDS011;6932;51.438;5.470;2022-08-01T05:40:04;10.67;;;6.40;;
13720;SDS011;6932;51.438;5.470;2022-08-01T05:42:31;11.43;;;6.53;;
13720;SDS011;6932;51.438;5.470;2022-08-01T05:44:57;11.50;;;6.57;;
13720;SDS011;6932;51.438;5.470;2022-08-01T05:47:23;10.33;;;6.50;;
13720;SDS011;6932;51.438;5.470;2022-08-01T05:49:49;9.70;;;6.10;;
13720;SDS011;6932;51.438;5.470;2022-08-01T05:52:15;11.07;;;5.97;;
13720;SDS011;6932;51.438;5.470;2022-08-01T05:54:41;8.63;;;5.10;;
13720;SDS011;6932;51.438;5.470;2022-08-01T05:57:06;8.87;;;5.23;;
13720;SDS011;6932;51.438;5.470;2022-08-01T05:59:32;9.47;;;5.30;;
13720;SDS011;6932;51.438;5.470;2022-08-01T06:01:58;8.50;;;4.93;;
13720;SDS011;6932;51.438;5.470;2022-08-01T06:04:24;8.63;;;5.10;;
13720;SDS011;6932;51.438;5.470;2022-08-01T06:06:50;9.17;;;5.70;;
13720;SDS011;6932;51.438;5.470;2022-08-01T06:09:16;6.97;;;4.57;;
13720;SDS011;6932;51.438;5.470;2022-08-01T06:11:41;7.60;;;4.90;;
13720;SDS011;6932;51.438;5.470;2022-08-01T06:14:07;8.57;;;4.83;;
13720;SDS011;6932;51.438;5.470;2022-08-01T06:16:33;7.70;;;4.40;;
13720;SDS011;6932;51.438;5.470;2022-08-01T06:18:59;7.07;;;3.83;;
13720;SDS011;6932;51.438;5.470;2022-08-01T06:21:25;5.77;;;3.80;;
13720;SDS011;6932;51.438;5.470;2022-08-01T06:23:51;6.97;;;3.90;;
13720;SDS011;6932;51.438;5.470;2022-08-01T06:26:17;6.40;;;3.53;;
13720;SDS011;6932;51.438;5.470;2022-08-01T06:28:44;6.33;;;3.60;;
13720;SDS011;6932;51.438;5.470;2022-08-01T06:31:09;4.63;;;3.10;;
13720;SDS011;6932;51.438;5.470;2022-08-01T06:33:37;5.17;;;3.00;;
13720;SDS011;6932;51.438;5.470;2022-08-01T06:36:03;4.63;;;3.17;;
13720;SDS011;6932;51.438;5.470;2022-08-01T06:38:29;3.80;;;2.63;;
13720;SDS011;6932;51.438;5.470;2022-08-01T06:40:54;4.90;;;3.03;;
13720;SDS011;6932;51.438;5.470;2022-08-01T06:43:20;4.63;;;2.77;;
13720;SDS011;6932;51.438;5.470;2022-08-01T06:45:46;5.07;;;3.00;;
13720;SDS011;6932;51.438;5.470;2022-08-01T06:48:12;4.43;;;3.03;;
13720;SDS011;6932;51.438;5.470;2022-08-01T06:50:38;5.00;;;2.83;;
13720;SDS011;6932;51.438;5.470;2022-08-01T06:53:04;3.43;;;2.80;;
13720;SDS011;6932;51.438;5.470;2022-08-01T06:55:30;5.70;;;2.97;;
13720;SDS011;6932;51.438;5.470;2022-08-01T06:57:56;5.77;;;2.77;;
13720;SDS011;6932;51.438;5.470;2022-08-01T07:00:23;4.27;;;2.40;;
13720;SDS011;6932;51.438;5.470;2022-08-01T07:02:50;3.33;;;2.10;;
13720;SDS011;6932;51.438;5.470;2022-08-01T07:05:20;2.90;;;2.03;;
13720;SDS011;6932;51.438;5.470;2022-08-01T07:07:47;2.20;;;1.70;;
13720;SDS011;6932;51.438;5.470;2022-08-01T07:10:12;2.90;;;2.10;;
13720;SDS011;6932;51.438;5.470;2022-08-01T07:12:38;2.63;;;1.87;;
13720;SDS011;6932;51.438;5.470;2022-08-01T07:15:06;2.63;;;1.67;;
13720;SDS011;6932;51.438;5.470;2022-08-01T07:17:40;2.10;;;1.80;;
13720;SDS011;6932;51.438;5.470;2022-08-01T07:20:08;2.00;;;1.73;;
13720;SDS011;6932;51.438;5.470;2022-08-01T07:22:37;2.60;;;1.63;;
13720;SDS011;6932;51.438;5.470;2022-08-01T07:25:04;2.53;;;2.00;;
13720;SDS011;6932;51.438;5.470;2022-08-01T07:27:31;3.10;;;2.07;;
13720;SDS011;6932;51.438;5.470;2022-08-01T07:29:57;3.17;;;1.93;;
13720;SDS011;6932;51.438;5.470;2022-08-01T07:32:23;2.67;;;1.70;;
13720;SDS011;6932;51.438;5.470;2022-08-01T07:34:49;2.87;;;1.53;;
13720;SDS011;6932;51.438;5.470;2022-08-01T07:37:14;1.80;;;1.50;;
13720;SDS011;6932;51.438;5.470;2022-08-01T07:39:40;3.20;;;1.60;;
13720;SDS011;6932;51.438;5.470;2022-08-01T07:42:06;3.70;;;2.30;;
13720;SDS011;6932;51.438;5.470;2022-08-01T07:44:31;2.37;;;1.70;;
13720;SDS011;6932;51.438;5.470;2022-08-01T07:46:57;1.83;;;1.40;;
13720;SDS011;6932;51.438;5.470;2022-08-01T07:49:23;1.43;;;1.33;;
13720;SDS011;6932;51.438;5.470;2022-08-01T07:51:49;1.90;;;1.40;;
13720;SDS011;6932;51.438;5.470;2022-08-01T07:54:15;1.80;;;1.20;;
13720;SDS011;6932;51.438;5.470;2022-08-01T07:56:40;1.20;;;1.10;;
13720;SDS011;6932;51.438;5.470;2022-08-01T07:59:06;1.87;;;1.20;;
13720;SDS011;6932;51.438;5.470;2022-08-01T08:01:32;1.30;;;1.20;;
13720;SDS011;6932;51.438;5.470;2022-08-01T08:03:57;1.30;;;1.20;;
13720;SDS011;6932;51.438;5.470;2022-08-01T08:06:23;1.90;;;1.20;;
13720;SDS011;6932;51.438;5.470;2022-08-01T08:08:49;1.43;;;1.10;;
13720;SDS011;6932;51.438;5.470;2022-08-01T08:11:15;2.73;;;1.13;;
13720;SDS011;6932;51.438;5.470;2022-08-01T08:13:40;1.67;;;1.17;;
13720;SDS011;6932;51.438;5.470;2022-08-01T08:16:06;1.65;;;1.40;;
13720;SDS011;6932;51.438;5.470;2022-08-01T08:18:32;1.45;;;1.33;;
13720;SDS011;6932;51.438;5.470;2022-08-01T08:20:57;1.23;;;1.10;;
13720;SDS011;6932;51.438;5.470;2022-08-01T08:23:23;1.48;;;1.35;;
13720;SDS011;6932;51.438;5.470;2022-08-01T08:26:07;1.83;;;1.73;;
13720;SDS011;6932;51.438;5.470;2022-08-01T08:28:33;1.80;;;1.67;;
13720;SDS011;6932;51.438;5.470;2022-08-01T08:30:59;3.78;;;1.50;;
13720;SDS011;6932;51.438;5.470;2022-08-01T08:33:24;2.38;;;1.50;;
13720;SDS011;6932;51.438;5.470;2022-08-01T08:35:50;1.80;;;1.60;;
13720;SDS011;6932;51.438;5.470;2022-08-01T08:38:16;1.60;;;1.50;;
13720;SDS011;6932;51.438;5.470;2022-08-01T08:40:41;1.60;;;1.50;;
13720;SDS011;6932;51.438;5.470;2022-08-01T08:43:07;1.50;;;1.40;;
13720;SDS011;6932;51.438;5.470;2022-08-01T08:45:34;1.50;;;1.40;;
13720;SDS011;6932;51.438;5.470;2022-08-01T08:48:00;1.40;;;1.30;;
13720;SDS011;6932;51.438;5.470;2022-08-01T08:50:26;1.67;;;1.50;;
13720;SDS011;6932;51.438;5.470;2022-08-01T08:52:54;1.85;;;1.55;;
13720;SDS011;6932;51.438;5.470;2022-08-01T08:55:21;1.88;;;1.73;;
13720;SDS011;6932;51.438;5.470;2022-08-01T08:57:49;1.80;;;1.60;;
13720;SDS011;6932;51.438;5.470;2022-08-01T09:00:17;1.98;;;1.50;;
13720;SDS011;6932;51.438;5.470;2022-08-01T09:02:44;1.88;;;1.40;;
13720;SDS011;6932;51.438;5.470;2022-08-01T09:05:13;1.63;;;1.52;;
13720;SDS011;6932;51.438;5.470;2022-08-01T09:07:40;1.80;;;1.40;;
13720;SDS011;6932;51.438;5.470;2022-08-01T09:10:07;2.72;;;1.48;;
13720;SDS011;6932;51.438;5.470;2022-08-01T09:12:34;1.33;;;1.20;;
13720;SDS011;6932;51.438;5.470;2022-08-01T09:15:02;1.67;;;1.42;;
13720;SDS011;6932;51.438;5.470;2022-08-01T09:17:38;4.00;;;1.30;;
13720;SDS011;6932;51.438;5.470;2022-08-01T09:20:06;1.50;;;1.10;;
13720;SDS011;6932;51.438;5.470;2022-08-01T09:22:33;1.45;;;1.25;;
13720;SDS011;6932;51.438;5.470;2022-08-01T09:25:00;1.70;;;1.20;;
13720;SDS011;6932;51.438;5.470;2022-08-01T09:27:30;4.25;;;1.20;;
13720;SDS011;6932;51.438;5.470;2022-08-01T09:32:34;1.27;;;1.10;;
13720;SDS011;6932;51.438;5.470;2022-08-01T09:35:45;1.10;;;1.10;;
13720;SDS011;6932;51.438;5.470;2022-08-01T09:40:58;2.72;;;1.20;;
13720;SDS011;6932;51.438;5.470;2022-08-01T09:43:26;1.40;;;1.20;;
13720;SDS011;6932;51.438;5.470;2022-08-01T09:45:55;1.40;;;1.20;;
13720;SDS011;6932;51.438;5.470;2022-08-01T09:48:22;1.48;;;1.30;;
13720;SDS011;6932;51.438;5.470;2022-08-01T09:50:49;2.20;;;1.23;;
13720;SDS011;6932;51.438;5.470;2022-08-01T09:53:17;1.50;;;1.30;;
13720;SDS011;6932;51.438;5.470;2022-08-01T09:55:44;1.40;;;1.20;;
13720;SDS011;6932;51.438;5.470;2022-08-01T09:58:10;1.30;;;1.20;;
13720;SDS011;6932;51.438;5.470;2022-08-01T10:00:37;2.03;;;1.33;;
13720;SDS011;6932;51.438;5.470;2022-08-01T10:03:18;1.15;;;1.10;;
13720;SDS011;6932;51.438;5.470;2022-08-01T10:05:44;1.45;;;1.10;;
13720;SDS011;6932;51.438;5.470;2022-08-01T10:08:10;1.60;;;1.50;;
13720;SDS011;6932;51.438;5.470;2022-08-01T10:10:37;1.50;;;1.40;;
13720;SDS011;6932;51.438;5.470;2022-08-01T10:13:03;2.40;;;1.60;;
13720;SDS011;6932;51.438;5.470;2022-08-01T10:15:29;1.33;;;1.23;;
13720;SDS011;6932;51.438;5.470;2022-08-01T10:17:57;1.70;;;1.30;;
13720;SDS011;6932;51.438;5.470;2022-08-01T10:20:27;1.30;;;1.20;;
13720;SDS011;6932;51.438;5.470;2022-08-01T10:22:58;1.23;;;1.13;;
13720;SDS011;6932;51.438;5.470;2022-08-01T10:25:27;1.30;;;1.20;;
13720;SDS011;6932;51.438;5.470;2022-08-01T10:27:56;1.63;;;1.30;;
13720;SDS011;6932;51.438;5.470;2022-08-01T10:30:26;1.63;;;1.10;;
13720;SDS011;6932;51.438;5.470;2022-08-01T10:32:53;1.20;;;1.10;;
13720;SDS011;6932;51.438;5.470;2022-08-01T10:35:21;6.63;;;4.50;;
13720;SDS011;6932;51.438;5.470;2022-08-01T10:37:47;2.90;;;1.83;;
13720;SDS011;6932;51.438;5.470;2022-08-01T10:40:15;3.70;;;2.80;;
13720;SDS011;6932;51.438;5.470;2022-08-01T10:42:45;1.00;;;0.90;;
13720;SDS011;6932;51.438;5.470;2022-08-01T10:45:11;0.90;;;0.90;;
13720;SDS011;6932;51.438;5.470;2022-08-01T10:47:42;1.58;;;0.90;;
13720;SDS011;6932;51.438;5.470;2022-08-01T10:50:37;1.25;;;0.90;;
13720;SDS011;6932;51.438;5.470;2022-08-01T10:53:20;1.70;;;0.85;;
13720;SDS011;6932;51.438;5.470;2022-08-01T10:55:49;1.05;;;0.85;;
13720;SDS011;6932;51.438;5.470;2022-08-01T10:58:30;0.90;;;0.90;;
13720;SDS011;6932;51.438;5.470;2022-08-01T11:06:25;1.42;;;1.30;;
13720;SDS011;6932;51.438;5.470;2022-08-01T11:08:57;1.60;;;1.40;;
13720;SDS011;6932;51.438;5.470;2022-08-01T11:11:26;2.58;;;1.30;;
13720;SDS011;6932;51.438;5.470;2022-08-01T11:14:04;1.40;;;1.08;;
13720;SDS011;6932;51.438;5.470;2022-08-01T11:16:40;1.60;;;1.27;;
13720;SDS011;6932;51.438;5.470;2022-08-01T11:19:06;1.45;;;1.35;;
13720;SDS011;6932;51.438;5.470;2022-08-01T11:32:34;1.30;;;1.20;;
13720;SDS011;6932;51.438;5.470;2022-08-01T11:35:15;2.20;;;1.42;;
13720;SDS011;6932;51.438;5.470;2022-08-01T11:37:42;1.58;;;1.35;;
13720;SDS011;6932;51.438;5.470;2022-08-01T11:40:27;1.58;;;1.30;;
13720;SDS011;6932;51.438;5.470;2022-08-01T11:43:16;1.73;;;1.10;;
13720;SDS011;6932;51.438;5.470;2022-08-01T11:45:49;2.00;;;1.20;;
13720;SDS011;6932;51.438;5.470;2022-08-01T11:48:20;1.52;;;1.20;;
13720;SDS011;6932;51.438;5.470;2022-08-01T11:50:51;1.08;;;1.08;;
13720;SDS011;6932;51.438;5.470;2022-08-01T11:53:20;1.20;;;1.10;;
13720;SDS011;6932;51.438;5.470;2022-08-01T11:55:47;1.60;;;1.17;;
13720;SDS011;6932;51.438;5.470;2022-08-01T11:58:25;1.95;;;1.10;;
13720;SDS011;6932;51.438;5.470;2022-08-01T12:00:52;1.00;;;0.93;;
13720;SDS011;6932;51.438;5.470;2022-08-01T12:03:30;1.85;;;1.17;;
13720;SDS011;6932;51.438;5.470;2022-08-01T12:05:58;2.45;;;1.20;;
13720;SDS011;6932;51.438;5.470;2022-08-01T12:08:27;0.90;;;0.88;;
13720;SDS011;6932;51.438;5.470;2022-08-01T12:11:01;2.45;;;1.02;;
13720;SDS011;6932;51.438;5.470;2022-08-01T12:13:42;1.45;;;1.27;;
13720;SDS011;6932;51.438;5.470;2022-08-01T12:16:10;0.95;;;0.88;;
13720;SDS011;6932;51.438;5.470;2022-08-01T12:18:40;2.28;;;1.10;;
13720;SDS011;6932;51.438;5.470;2022-08-01T12:21:07;0.88;;;0.88;;
13720;SDS011;6932;51.438;5.470;2022-08-01T12:23:33;1.70;;;1.00;;
13720;SDS011;6932;51.438;5.470;2022-08-01T12:25:58;1.98;;;1.00;;
13720;SDS011;6932;51.438;5.470;2022-08-01T12:28:25;1.45;;;0.90;;
13720;SDS011;6932;51.438;5.470;2022-08-01T12:30:51;4.35;;;1.13;;
13720;SDS011;6932;51.438;5.470;2022-08-01T12:33:17;3.03;;;1.10;;
13720;SDS011;6932;51.438;5.470;2022-08-01T12:35:45;2.22;;;1.40;;
13720;SDS011;6932;51.438;5.470;2022-08-01T12:38:16;2.45;;;1.35;;
13720;SDS011;6932;51.438;5.470;2022-08-01T12:40:47;2.13;;;1.42;;
13720;SDS011;6932;51.438;5.470;2022-08-01T12:43:18;1.83;;;1.13;;
13720;SDS011;6932;51.438;5.470;2022-08-01T12:45:48;2.15;;;1.30;;
13720;SDS011;6932;51.438;5.470;2022-08-01T12:48:17;1.90;;;1.10;;
13720;SDS011;6932;51.438;5.470;2022-08-01T12:50:45;1.50;;;1.20;;
13720;SDS011;6932;51.438;5.470;2022-08-01T12:53:17;1.65;;;1.30;;
13720;SDS011;6932;51.438;5.470;2022-08-01T12:55:46;2.85;;;1.10;;
13720;SDS011;6932;51.438;5.470;2022-08-01T12:58:18;1.83;;;1.20;;
13720;SDS011;6932;51.438;5.470;2022-08-01T13:00:47;1.70;;;0.90;;
13720;SDS011;6932;51.438;5.470;2022-08-01T13:03:15;1.02;;;0.93;;
13720;SDS011;6932;51.438;5.470;2022-08-01T13:08:25;1.67;;;1.30;;
13720;SDS011;6932;51.438;5.470;2022-08-01T13:11:02;1.90;;;1.20;;
13720;SDS011;6932;51.438;5.470;2022-08-01T13:13:38;1.67;;;1.20;;
13720;SDS011;6932;51.438;5.470;2022-08-01T13:16:12;2.25;;;1.20;;
13720;SDS011;6932;51.438;5.470;2022-08-01T13:18:39;1.25;;;1.13;;
13720;SDS011;6932;51.438;5.470;2022-08-01T13:23:38;3.50;;;1.50;;
13720;SDS011;6932;51.438;5.470;2022-08-01T13:26:05;2.50;;;1.52;;
13720;SDS011;6932;51.438;5.470;2022-08-01T13:28:32;4.18;;;1.50;;
13720;SDS011;6932;51.438;5.470;2022-08-01T13:31:02;2.35;;;1.50;;
13720;SDS011;6932;51.438;5.470;2022-08-01T13:33:42;4.10;;;1.60;;
13720;SDS011;6932;51.438;5.470;2022-08-01T13:36:10;1.80;;;1.35;;
13720;SDS011;6932;51.438;5.470;2022-08-01T13:38:37;2.97;;;1.30;;
13720;SDS011;6932;51.438;5.470;2022-08-01T13:41:22;2.25;;;1.30;;
13720;SDS011;6932;51.438;5.470;2022-08-01T13:43:48;2.60;;;1.52;;
13720;SDS011;6932;51.438;5.470;2022-08-01T13:46:14;2.35;;;1.30;;
13720;SDS011;6932;51.438;5.470;2022-08-01T13:48:40;2.58;;;1.63;;
13720;SDS011;6932;51.438;5.470;2022-08-01T13:51:06;7.32;;;1.60;;
13720;SDS011;6932;51.438;5.470;2022-08-01T13:53:32;2.42;;;1.35;;
13720;SDS011;6932;51.438;5.470;2022-08-01T13:55:58;1.85;;;1.55;;
13720;SDS011;6932;51.438;5.470;2022-08-01T13:58:24;3.97;;;1.73;;
13720;SDS011;6932;51.438;5.470;2022-08-01T14:00:50;2.30;;;1.50;;
13720;SDS011;6932;51.438;5.470;2022-08-01T14:03:16;3.15;;;1.77;;
13720;SDS011;6932;51.438;5.470;2022-08-01T14:05:42;2.13;;;1.60;;
13720;SDS011;6932;51.438;5.470;2022-08-01T14:08:09;3.65;;;1.90;;
13720;SDS011;6932;51.438;5.470;2022-08-01T14:10:34;3.97;;;1.90;;
13720;SDS011;6932;51.438;5.470;2022-08-01T14:13:00;1.77;;;1.60;;
13720;SDS011;6932;51.438;5.470;2022-08-01T14:15:26;2.88;;;1.98;;
13720;SDS011;6932;51.438;5.470;2022-08-01T14:17:52;3.20;;;1.80;;
13720;SDS011;6932;51.438;5.470;2022-08-01T14:20:17;2.72;;;1.90;;
13720;SDS011;6932;51.438;5.470;2022-08-01T14:22:45;2.30;;;1.75;;
13720;SDS011;6932;51.438;5.470;2022-08-01T14:25:11;6.20;;;2.10;;
13720;SDS011;6932;51.438;5.470;2022-08-01T14:27:38;1.73;;;1.45;;
13720;SDS011;6932;51.438;5.470;2022-08-01T14:30:05;2.35;;;1.80;;
13720;SDS011;6932;51.438;5.470;2022-08-01T14:32:32;2.83;;;1.60;;
13720;SDS011;6932;51.438;5.470;2022-08-01T14:34:59;3.45;;;1.60;;
13720;SDS011;6932;51.438;5.470;2022-08-01T14:37:26;3.13;;;1.50;;
13720;SDS011;6932;51.438;5.470;2022-08-01T14:39:54;1.67;;;1.40;;
13720;SDS011;6932;51.438;5.470;2022-08-01T14:42:20;2.92;;;1.50;;
13720;SDS011;6932;51.438;5.470;2022-08-01T14:44:46;3.20;;;1.63;;
13720;SDS011;6932;51.438;5.470;2022-08-01T14:47:12;4.43;;;1.70;;
13720;SDS011;6932;51.438;5.470;2022-08-01T14:49:37;3.40;;;1.55;;
13720;SDS011;6932;51.438;5.470;2022-08-01T14:52:03;3.13;;;1.80;;
13720;SDS011;6932;51.438;5.470;2022-08-01T14:54:29;2.42;;;1.50;;
13720;SDS011;6932;51.438;5.470;2022-08-01T14:56:55;4.60;;;1.70;;
13720;SDS011;6932;51.438;5.470;2022-08-01T14:59:21;2.88;;;1.52;;
13720;SDS011;6932;51.438;5.470;2022-08-01T15:01:47;3.33;;;1.73;;
13720;SDS011;6932;51.438;5.470;2022-08-01T15:04:12;2.88;;;1.63;;
13720;SDS011;6932;51.438;5.470;2022-08-01T15:06:38;4.28;;;1.80;;
13720;SDS011;6932;51.438;5.470;2022-08-01T15:09:04;3.00;;;1.48;;
13720;SDS011;6932;51.438;5.470;2022-08-01T15:11:30;3.10;;;1.45;;
13720;SDS011;6932;51.438;5.470;2022-08-01T15:13:55;3.20;;;1.60;;
13720;SDS011;6932;51.438;5.470;2022-08-01T15:16:39;1.67;;;1.30;;
13720;SDS011;6932;51.438;5.470;2022-08-01T15:19:05;3.85;;;1.70;;
13720;SDS011;6932;51.438;5.470;2022-08-01T15:21:31;3.60;;;1.73;;
13720;SDS011;6932;51.438;5.470;2022-08-01T15:23:57;1.63;;;1.20;;
13720;SDS011;6932;51.438;5.470;2022-08-01T15:26:22;3.65;;;1.50;;
13720;SDS011;6932;51.438;5.470;2022-08-01T15:28:48;2.30;;;1.45;;
13720;SDS011;6932;51.438;5.470;2022-08-01T15:31:14;2.50;;;1.35;;
13720;SDS011;6932;51.438;5.470;2022-08-01T15:33:39;3.03;;;1.40;;
13720;SDS011;6932;51.438;5.470;2022-08-01T15:36:05;3.08;;;1.50;;
13720;SDS011;6932;51.438;5.470;2022-08-01T15:38:31;2.55;;;1.30;;
13720;SDS011;6932;51.438;5.470;2022-08-01T15:40:57;3.35;;;1.60;;
13720;SDS011;6932;51.438;5.470;2022-08-01T15:43:23;3.45;;;1.65;;
13720;SDS011;6932;51.438;5.470;2022-08-01T15:45:48;2.13;;;1.40;;
13720;SDS011;6932;51.438;5.470;2022-08-01T15:48:17;3.30;;;1.30;;